sensor_id;sensor_type;location;lat;lon;timestamp;P1;durP1;ratioP1;P2;durP2;ratioP2
32347;SDS011;18821;44.800;10.326;2023-09-19T00:00:19;15.25;;;4.82;;
32347;SDS011;18821;44.800;10.326;2023-09-19T00:02:46;20.65;;;4.20;;
32347;SDS011;18821;44.800;10.326;2023-09-19T00:05:23;18.63;;;5.18;;
32347;SDS011;18821;44.800;10.326;2023-09-19T00:07:56;18.13;;;4.35;;
32347;SDS011;18821;44.800;10.326;2023-09-19T00:10:26;18.58;;;5.40;;
32347;SDS011;18821;44.800;10.326;2023-09-19T00:12:58;16.85;;;5.40;;
32347;SDS011;18821;44.800;10.326;2023-09-19T00:15:25;18.88;;;5.80;;
32347;SDS011;18821;44.800;10.326;2023-09-19T00:17:55;23.85;;;5.82;;
32347;SDS011;18821;44.800;10.326;2023-09-19T00:20:21;17.15;;;5.53;;
32347;SDS011;18821;44.800;10.326;2023-09-19T00:22:49;16.13;;;5.50;;
32347;SDS011;18821;44.800;10.326;2023-09-19T00:25:17;14.60;;;5.53;;
32347;SDS011;18821;44.800;10.326;2023-09-19T00:27:43;13.05;;;4.60;;
32347;SDS011;18821;44.800;10.326;2023-09-19T00:30:11;15.00;;;5.30;;
32347;SDS011;18821;44.800;10.326;2023-09-19T00:32:47;12.73;;;4.85;;
32347;SDS011;18821;44.800;10.326;2023-09-19T00:35:14;16.95;;;6.45;;
32347;SDS011;18821;44.800;10.326;2023-09-19T00:37:44;16.98;;;5.63;;
32347;SDS011;18821;44.800;10.326;2023-09-19T00:40:10;16.13;;;5.70;;
32347;SDS011;18821;44.800;10.326;2023-09-19T00:42:38;18.05;;;6.00;;
32347;SDS011;18821;44.800;10.326;2023-09-19T00:45:09;14.68;;;5.05;;
32347;SDS011;18821;44.800;10.326;2023-09-19T00:47:45;15.15;;;4.95;;
32347;SDS011;18821;44.800;10.326;2023-09-19T00:50:15;15.07;;;5.68;;
32347;SDS011;18821;44.800;10.326;2023-09-19T00:52:42;14.48;;;5.75;;
32347;SDS011;18821;44.800;10.326;2023-09-19T00:55:10;15.50;;;5.10;;
32347;SDS011;18821;44.800;10.326;2023-09-19T00:57:39;15.88;;;5.63;;
32347;SDS011;18821;44.800;10.326;2023-09-19T01:00:07;19.10;;;5.88;;
32347;SDS011;18821;44.800;10.326;2023-09-19T01:02:37;20.17;;;5.63;;
32347;SDS011;18821;44.800;10.326;2023-09-19T01:05:03;16.33;;;5.85;;
32347;SDS011;18821;44.800;10.326;2023-09-19T01:07:31;14.50;;;4.75;;
32347;SDS011;18821;44.800;10.326;2023-09-19T01:10:02;14.10;;;5.20;;
32347;SDS011;18821;44.800;10.326;2023-09-19T01:15:22;17.25;;;5.78;;
32347;SDS011;18821;44.800;10.326;2023-09-19T01:29:35;16.58;;;5.45;;
32347;SDS011;18821;44.800;10.326;2023-09-19T01:32:05;19.55;;;7.13;;
32347;SDS011;18821;44.800;10.326;2023-09-19T01:37:14;22.17;;;7.63;;
32347;SDS011;18821;44.800;10.326;2023-09-19T01:39:50;19.00;;;6.63;;
32347;SDS011;18821;44.800;10.326;2023-09-19T01:45:03;17.92;;;7.40;;
32347;SDS011;18821;44.800;10.326;2023-09-19T01:47:35;21.58;;;6.95;;
32347;SDS011;18821;44.800;10.326;2023-09-19T01:52:31;21.67;;;8.10;;
32347;SDS011;18821;44.800;10.326;2023-09-19T01:55:08;25.60;;;6.25;;
32347;SDS011;18821;44.800;10.326;2023-09-19T01:57:43;24.25;;;6.90;;
32347;SDS011;18821;44.800;10.326;2023-09-19T02:00:19;20.63;;;6.63;;
32347;SDS011;18821;44.800;10.326;2023-09-19T02:02:48;19.77;;;5.90;;
32347;SDS011;18821;44.800;10.326;2023-09-19T02:05:21;16.48;;;6.18;;
32347;SDS011;18821;44.800;10.326;2023-09-19T02:07:52;20.63;;;6.60;;
32347;SDS011;18821;44.800;10.326;2023-09-19T02:10:19;20.17;;;7.25;;
32347;SDS011;18821;44.800;10.326;2023-09-19T02:12:46;18.45;;;6.72;;
32347;SDS011;18821;44.800;10.326;2023-09-19T02:15:13;21.13;;;6.18;;
32347;SDS011;18821;44.800;10.326;2023-09-19T02:17:41;19.85;;;6.65;;
32347;SDS011;18821;44.800;10.326;2023-09-19T02:20:12;16.40;;;5.57;;
32347;SDS011;18821;44.800;10.326;2023-09-19T02:22:41;20.70;;;6.20;;
32347;SDS011;18821;44.800;10.326;2023-09-19T02:25:07;22.90;;;6.60;;
32347;SDS011;18821;44.800;10.326;2023-09-19T02:27:35;23.67;;;6.97;;
32347;SDS011;18821;44.800;10.326;2023-09-19T02:30:02;19.20;;;6.00;;
32347;SDS011;18821;44.800;10.326;2023-09-19T02:32:32;30.13;;;6.07;;
32347;SDS011;18821;44.800;10.326;2023-09-19T02:35:06;17.95;;;5.22;;
32347;SDS011;18821;44.800;10.326;2023-09-19T02:37:33;22.27;;;7.88;;
32347;SDS011;18821;44.800;10.326;2023-09-19T02:40:00;26.25;;;5.72;;
32347;SDS011;18821;44.800;10.326;2023-09-19T02:42:26;22.73;;;6.70;;
32347;SDS011;18821;44.800;10.326;2023-09-19T02:44:54;18.23;;;5.60;;
32347;SDS011;18821;44.800;10.326;2023-09-19T02:47:21;13.93;;;5.53;;
32347;SDS011;18821;44.800;10.326;2023-09-19T02:49:48;24.02;;;5.43;;
32347;SDS011;18821;44.800;10.326;2023-09-19T02:52:14;19.60;;;6.20;;
32347;SDS011;18821;44.800;10.326;2023-09-19T02:54:41;22.85;;;5.80;;
32347;SDS011;18821;44.800;10.326;2023-09-19T02:57:10;18.00;;;6.10;;
32347;SDS011;18821;44.800;10.326;2023-09-19T02:59:39;25.60;;;6.88;;
32347;SDS011;18821;44.800;10.326;2023-09-19T03:02:10;25.42;;;7.28;;
32347;SDS011;18821;44.800;10.326;2023-09-19T03:04:37;21.55;;;6.75;;
32347;SDS011;18821;44.800;10.326;2023-09-19T03:07:03;26.95;;;6.45;;
32347;SDS011;18821;44.800;10.326;2023-09-19T03:09:30;25.83;;;6.63;;
32347;SDS011;18821;44.800;10.326;2023-09-19T03:11:57;25.25;;;6.88;;
32347;SDS011;18821;44.800;10.326;2023-09-19T03:14:23;22.60;;;6.38;;
32347;SDS011;18821;44.800;10.326;2023-09-19T03:16:50;29.77;;;6.18;;
32347;SDS011;18821;44.800;10.326;2023-09-19T03:19:17;27.15;;;7.25;;
32347;SDS011;18821;44.800;10.326;2023-09-19T03:21:46;28.50;;;7.50;;
32347;SDS011;18821;44.800;10.326;2023-09-19T03:24:15;22.67;;;6.10;;
32347;SDS011;18821;44.800;10.326;2023-09-19T03:26:41;30.13;;;7.68;;
32347;SDS011;18821;44.800;10.326;2023-09-19T03:29:07;25.17;;;5.78;;
32347;SDS011;18821;44.800;10.326;2023-09-19T03:31:35;23.05;;;7.10;;
32347;SDS011;18821;44.800;10.326;2023-09-19T03:34:06;20.83;;;5.82;;
32347;SDS011;18821;44.800;10.326;2023-09-19T03:36:32;25.85;;;6.22;;
32347;SDS011;18821;44.800;10.326;2023-09-19T03:38:59;26.35;;;7.03;;
32347;SDS011;18821;44.800;10.326;2023-09-19T03:41:27;33.55;;;7.15;;
32347;SDS011;18821;44.800;10.326;2023-09-19T03:43:52;33.58;;;7.28;;
32347;SDS011;18821;44.800;10.326;2023-09-19T03:46:18;23.67;;;7.07;;
32347;SDS011;18821;44.800;10.326;2023-09-19T03:48:46;18.85;;;6.05;;
32347;SDS011;18821;44.800;10.326;2023-09-19T03:51:12;20.48;;;6.10;;
32347;SDS011;18821;44.800;10.326;2023-09-19T03:53:39;20.90;;;5.55;;
32347;SDS011;18821;44.800;10.326;2023-09-19T03:56:05;30.90;;;6.75;;
32347;SDS011;18821;44.800;10.326;2023-09-19T03:58:32;25.13;;;7.15;;
32347;SDS011;18821;44.800;10.326;2023-09-19T04:01:03;18.67;;;5.32;;
32347;SDS011;18821;44.800;10.326;2023-09-19T04:03:29;17.63;;;6.05;;
32347;SDS011;18821;44.800;10.326;2023-09-19T04:06:09;18.25;;;5.63;;
32347;SDS011;18821;44.800;10.326;2023-09-19T04:08:35;19.23;;;5.45;;
32347;SDS011;18821;44.800;10.326;2023-09-19T04:11:01;23.08;;;7.55;;
32347;SDS011;18821;44.800;10.326;2023-09-19T04:13:27;21.48;;;7.10;;
32347;SDS011;18821;44.800;10.326;2023-09-19T04:15:54;24.23;;;6.20;;
32347;SDS011;18821;44.800;10.326;2023-09-19T04:18:20;26.20;;;5.60;;
32347;SDS011;18821;44.800;10.326;2023-09-19T04:20:52;21.25;;;6.25;;
32347;SDS011;18821;44.800;10.326;2023-09-19T04:23:18;24.05;;;7.20;;
32347;SDS011;18821;44.800;10.326;2023-09-19T04:25:46;28.15;;;8.13;;
32347;SDS011;18821;44.800;10.326;2023-09-19T04:28:13;35.60;;;8.20;;
32347;SDS011;18821;44.800;10.326;2023-09-19T04:30:40;23.55;;;8.48;;
32347;SDS011;18821;44.800;10.326;2023-09-19T04:33:05;25.52;;;9.45;;
32347;SDS011;18821;44.800;10.326;2023-09-19T04:35:32;24.33;;;9.88;;
32347;SDS011;18821;44.800;10.326;2023-09-19T04:37:58;26.70;;;9.88;;
32347;SDS011;18821;44.800;10.326;2023-09-19T04:40:24;20.90;;;11.32;;
32347;SDS011;18821;44.800;10.326;2023-09-19T04:42:55;28.73;;;11.55;;
32347;SDS011;18821;44.800;10.326;2023-09-19T04:45:22;31.67;;;12.05;;
32347;SDS011;18821;44.800;10.326;2023-09-19T04:47:48;38.05;;;13.18;;
32347;SDS011;18821;44.800;10.326;2023-09-19T04:50:15;36.60;;;14.18;;
32347;SDS011;18821;44.800;10.326;2023-09-19T04:52:42;35.88;;;14.43;;
32347;SDS011;18821;44.800;10.326;2023-09-19T04:55:15;33.17;;;15.18;;
32347;SDS011;18821;44.800;10.326;2023-09-19T04:57:51;31.45;;;14.52;;
32347;SDS011;18821;44.800;10.326;2023-09-19T05:00:21;38.83;;;16.40;;
32347;SDS011;18821;44.800;10.326;2023-09-19T05:02:54;35.78;;;16.63;;
32347;SDS011;18821;44.800;10.326;2023-09-19T05:05:22;44.00;;;17.08;;
32347;SDS011;18821;44.800;10.326;2023-09-19T05:07:50;42.65;;;17.88;;
32347;SDS011;18821;44.800;10.326;2023-09-19T05:10:18;39.10;;;17.60;;
32347;SDS011;18821;44.800;10.326;2023-09-19T05:12:45;35.25;;;16.90;;
32347;SDS011;18821;44.800;10.326;2023-09-19T05:15:13;43.78;;;19.38;;
32347;SDS011;18821;44.800;10.326;2023-09-19T05:17:40;42.53;;;17.70;;
32347;SDS011;18821;44.800;10.326;2023-09-19T05:20:06;49.08;;;18.75;;
32347;SDS011;18821;44.800;10.326;2023-09-19T05:22:43;40.97;;;18.92;;
32347;SDS011;18821;44.800;10.326;2023-09-19T05:25:11;41.75;;;19.30;;
32347;SDS011;18821;44.800;10.326;2023-09-19T05:27:45;38.13;;;18.70;;
32347;SDS011;18821;44.800;10.326;2023-09-19T05:30:12;44.03;;;19.73;;
32347;SDS011;18821;44.800;10.326;2023-09-19T05:32:40;45.70;;;21.10;;
32347;SDS011;18821;44.800;10.326;2023-09-19T05:35:06;38.45;;;21.92;;
32347;SDS011;18821;44.800;10.326;2023-09-19T05:37:35;44.03;;;21.40;;
32347;SDS011;18821;44.800;10.326;2023-09-19T05:40:02;39.20;;;20.63;;
32347;SDS011;18821;44.800;10.326;2023-09-19T05:42:32;46.85;;;22.20;;
32347;SDS011;18821;44.800;10.326;2023-09-19T05:44:59;38.08;;;20.05;;
32347;SDS011;18821;44.800;10.326;2023-09-19T05:47:25;49.60;;;20.60;;
32347;SDS011;18821;44.800;10.326;2023-09-19T05:49:51;46.72;;;21.02;;
32347;SDS011;18821;44.800;10.326;2023-09-19T05:52:18;48.60;;;21.75;;
32347;SDS011;18821;44.800;10.326;2023-09-19T05:54:46;43.55;;;21.42;;
32347;SDS011;18821;44.800;10.326;2023-09-19T05:57:14;43.03;;;20.50;;
32347;SDS011;18821;44.800;10.326;2023-09-19T05:59:41;44.80;;;19.70;;
32347;SDS011;18821;44.800;10.326;2023-09-19T06:02:08;43.33;;;17.65;;
32347;SDS011;18821;44.800;10.326;2023-09-19T06:04:37;44.00;;;19.95;;
32347;SDS011;18821;44.800;10.326;2023-09-19T06:07:06;45.95;;;20.10;;
32347;SDS011;18821;44.800;10.326;2023-09-19T06:09:32;38.70;;;20.13;;
32347;SDS011;18821;44.800;10.326;2023-09-19T06:11:59;37.38;;;19.48;;
32347;SDS011;18821;44.800;10.326;2023-09-19T06:14:30;43.65;;;19.23;;
32347;SDS011;18821;44.800;10.326;2023-09-19T06:16:56;45.67;;;21.50;;
32347;SDS011;18821;44.800;10.326;2023-09-19T06:19:22;40.22;;;21.10;;
32347;SDS011;18821;44.800;10.326;2023-09-19T06:21:52;45.38;;;23.27;;
32347;SDS011;18821;44.800;10.326;2023-09-19T06:24:19;38.83;;;22.60;;
32347;SDS011;18821;44.800;10.326;2023-09-19T06:26:46;51.03;;;24.38;;
32347;SDS011;18821;44.800;10.326;2023-09-19T06:29:13;48.10;;;24.58;;
32347;SDS011;18821;44.800;10.326;2023-09-19T06:31:39;54.67;;;27.65;;
32347;SDS011;18821;44.800;10.326;2023-09-19T06:34:05;51.42;;;27.60;;
32347;SDS011;18821;44.800;10.326;2023-09-19T06:36:32;49.17;;;24.80;;
32347;SDS011;18821;44.800;10.326;2023-09-19T06:38:58;60.50;;;26.42;;
32347;SDS011;18821;44.800;10.326;2023-09-19T06:41:24;55.00;;;27.90;;
32347;SDS011;18821;44.800;10.326;2023-09-19T06:43:50;58.33;;;26.88;;
32347;SDS011;18821;44.800;10.326;2023-09-19T06:46:18;55.80;;;27.63;;
32347;SDS011;18821;44.800;10.326;2023-09-19T06:48:44;46.15;;;26.35;;
32347;SDS011;18821;44.800;10.326;2023-09-19T06:51:12;53.00;;;27.05;;
32347;SDS011;18821;44.800;10.326;2023-09-19T06:53:41;51.65;;;27.27;;
32347;SDS011;18821;44.800;10.326;2023-09-19T06:56:08;56.97;;;27.98;;
32347;SDS011;18821;44.800;10.326;2023-09-19T06:58:34;60.60;;;29.63;;
32347;SDS011;18821;44.800;10.326;2023-09-19T07:01:01;53.45;;;27.70;;
32347;SDS011;18821;44.800;10.326;2023-09-19T07:03:28;55.25;;;30.58;;
32347;SDS011;18821;44.800;10.326;2023-09-19T07:05:54;48.90;;;28.75;;
32347;SDS011;18821;44.800;10.326;2023-09-19T07:08:21;61.28;;;28.92;;
32347;SDS011;18821;44.800;10.326;2023-09-19T07:10:47;52.25;;;27.10;;
32347;SDS011;18821;44.800;10.326;2023-09-19T07:13:19;51.28;;;27.75;;
32347;SDS011;18821;44.800;10.326;2023-09-19T07:15:45;49.22;;;26.33;;
32347;SDS011;18821;44.800;10.326;2023-09-19T07:18:15;54.45;;;27.42;;
32347;SDS011;18821;44.800;10.326;2023-09-19T07:20:42;45.13;;;25.30;;
32347;SDS011;18821;44.800;10.326;2023-09-19T07:23:16;52.60;;;27.10;;
32347;SDS011;18821;44.800;10.326;2023-09-19T07:25:43;45.33;;;24.77;;
32347;SDS011;18821;44.800;10.326;2023-09-19T07:28:11;45.25;;;25.15;;
32347;SDS011;18821;44.800;10.326;2023-09-19T07:30:37;52.33;;;28.45;;
32347;SDS011;18821;44.800;10.326;2023-09-19T07:33:04;127.53;;;29.55;;
32347;SDS011;18821;44.800;10.326;2023-09-19T07:35:31;49.60;;;22.63;;
32347;SDS011;18821;44.800;10.326;2023-09-19T07:37:57;37.95;;;22.08;;
32347;SDS011;18821;44.800;10.326;2023-09-19T07:40:26;41.05;;;21.88;;
32347;SDS011;18821;44.800;10.326;2023-09-19T07:42:54;45.28;;;22.80;;
32347;SDS011;18821;44.800;10.326;2023-09-19T07:45:21;52.55;;;22.08;;
32347;SDS011;18821;44.800;10.326;2023-09-19T07:47:48;32.55;;;17.77;;
32347;SDS011;18821;44.800;10.326;2023-09-19T07:50:18;31.67;;;18.98;;
32347;SDS011;18821;44.800;10.326;2023-09-19T07:52:45;41.47;;;18.70;;
32347;SDS011;18821;44.800;10.326;2023-09-19T07:55:18;35.65;;;18.50;;
32347;SDS011;18821;44.800;10.326;2023-09-19T07:57:46;46.17;;;22.05;;
32347;SDS011;18821;44.800;10.326;2023-09-19T08:00:12;36.75;;;20.33;;
32347;SDS011;18821;44.800;10.326;2023-09-19T08:02:40;44.55;;;22.42;;
32347;SDS011;18821;44.800;10.326;2023-09-19T08:05:07;46.72;;;24.13;;
32347;SDS011;18821;44.800;10.326;2023-09-19T08:07:37;46.03;;;23.98;;
32347;SDS011;18821;44.800;10.326;2023-09-19T08:10:04;41.90;;;21.73;;
32347;SDS011;18821;44.800;10.326;2023-09-19T08:12:42;40.43;;;20.10;;
32347;SDS011;18821;44.800;10.326;2023-09-19T08:15:20;38.80;;;18.13;;
32347;SDS011;18821;44.800;10.326;2023-09-19T08:17:46;35.85;;;16.52;;
32347;SDS011;18821;44.800;10.326;2023-09-19T08:20:13;40.13;;;18.67;;
32347;SDS011;18821;44.800;10.326;2023-09-19T08:22:43;35.78;;;17.40;;
32347;SDS011;18821;44.800;10.326;2023-09-19T08:25:14;30.58;;;15.63;;
32347;SDS011;18821;44.800;10.326;2023-09-19T08:27:43;31.50;;;17.17;;
32347;SDS011;18821;44.800;10.326;2023-09-19T08:30:15;42.50;;;19.73;;
32347;SDS011;18821;44.800;10.326;2023-09-19T08:32:43;37.13;;;17.98;;
32347;SDS011;18821;44.800;10.326;2023-09-19T08:35:10;37.20;;;18.92;;
32347;SDS011;18821;44.800;10.326;2023-09-19T08:37:36;34.83;;;19.50;;
32347;SDS011;18821;44.800;10.326;2023-09-19T08:40:02;39.92;;;17.98;;
32347;SDS011;18821;44.800;10.326;2023-09-19T08:42:28;37.95;;;19.10;;
32347;SDS011;18821;44.800;10.326;2023-09-19T08:44:55;37.45;;;18.70;;
32347;SDS011;18821;44.800;10.326;2023-09-19T08:47:40;30.95;;;17.13;;
32347;SDS011;18821;44.800;10.326;2023-09-19T08:50:19;34.40;;;17.15;;
32347;SDS011;18821;44.800;10.326;2023-09-19T08:52:51;34.72;;;20.10;;
32347;SDS011;18821;44.800;10.326;2023-09-19T08:55:20;42.25;;;19.25;;
32347;SDS011;18821;44.800;10.326;2023-09-19T08:57:52;38.95;;;18.27;;
32347;SDS011;18821;44.800;10.326;2023-09-19T09:00:24;32.10;;;14.23;;
32347;SDS011;18821;44.800;10.326;2023-09-19T09:02:52;29.40;;;14.07;;
32347;SDS011;18821;44.800;10.326;2023-09-19T09:05:22;32.80;;;14.13;;
32347;SDS011;18821;44.800;10.326;2023-09-19T09:07:49;31.15;;;13.70;;
32347;SDS011;18821;44.800;10.326;2023-09-19T09:10:20;33.75;;;17.88;;
32347;SDS011;18821;44.800;10.326;2023-09-19T09:12:50;32.75;;;16.75;;
32347;SDS011;18821;44.800;10.326;2023-09-19T09:15:20;34.67;;;14.63;;
32347;SDS011;18821;44.800;10.326;2023-09-19T09:17:50;30.85;;;18.38;;
32347;SDS011;18821;44.800;10.326;2023-09-19T09:20:18;42.60;;;20.60;;
32347;SDS011;18821;44.800;10.326;2023-09-19T09:22:51;38.65;;;19.70;;
32347;SDS011;18821;44.800;10.326;2023-09-19T09:25:19;31.73;;;16.88;;
32347;SDS011;18821;44.800;10.326;2023-09-19T09:27:59;41.10;;;21.08;;
32347;SDS011;18821;44.800;10.326;2023-09-19T09:30:32;32.88;;;20.77;;
32347;SDS011;18821;44.800;10.326;2023-09-19T09:33:10;40.67;;;21.27;;
32347;SDS011;18821;44.800;10.326;2023-09-19T09:35:50;43.47;;;20.88;;
32347;SDS011;18821;44.800;10.326;2023-09-19T09:38:27;50.50;;;22.13;;
32347;SDS011;18821;44.800;10.326;2023-09-19T09:40:57;40.28;;;22.25;;
32347;SDS011;18821;44.800;10.326;2023-09-19T09:43:31;37.88;;;21.27;;
32347;SDS011;18821;44.800;10.326;2023-09-19T09:48:48;39.63;;;21.23;;
32347;SDS011;18821;44.800;10.326;2023-09-19T09:51:43;40.25;;;20.00;;
32347;SDS011;18821;44.800;10.326;2023-09-19T09:54:23;35.75;;;17.95;;
32347;SDS011;18821;44.800;10.326;2023-09-19T09:56:53;35.60;;;17.98;;
32347;SDS011;18821;44.800;10.326;2023-09-19T09:59:43;39.97;;;21.10;;
32347;SDS011;18821;44.800;10.326;2023-09-19T10:02:14;36.10;;;20.25;;
32347;SDS011;18821;44.800;10.326;2023-09-19T10:04:45;32.40;;;19.20;;
32347;SDS011;18821;44.800;10.326;2023-09-19T10:07:30;44.65;;;20.50;;
32347;SDS011;18821;44.800;10.326;2023-09-19T10:10:15;41.28;;;19.67;;
32347;SDS011;18821;44.800;10.326;2023-09-19T10:12:54;38.00;;;20.27;;
32347;SDS011;18821;44.800;10.326;2023-09-19T10:15:31;29.67;;;19.10;;
32347;SDS011;18821;44.800;10.326;2023-09-19T10:18:00;35.00;;;19.15;;
32347;SDS011;18821;44.800;10.326;2023-09-19T10:20:29;42.83;;;21.13;;
32347;SDS011;18821;44.800;10.326;2023-09-19T10:23:01;35.05;;;20.17;;
32347;SDS011;18821;44.800;10.326;2023-09-19T10:25:37;43.53;;;21.85;;
32347;SDS011;18821;44.800;10.326;2023-09-19T10:28:08;36.33;;;19.63;;
32347;SDS011;18821;44.800;10.326;2023-09-19T10:30:45;39.90;;;19.58;;
32347;SDS011;18821;44.800;10.326;2023-09-19T10:33:15;42.15;;;20.23;;
32347;SDS011;18821;44.800;10.326;2023-09-19T10:35:45;38.85;;;20.27;;
32347;SDS011;18821;44.800;10.326;2023-09-19T10:38:13;32.80;;;18.02;;
32347;SDS011;18821;44.800;10.326;2023-09-19T10:40:44;36.55;;;18.15;;
32347;SDS011;18821;44.800;10.326;2023-09-19T10:43:15;31.00;;;16.40;;
32347;SDS011;18821;44.800;10.326;2023-09-19T10:45:47;31.98;;;19.05;;
32347;SDS011;18821;44.800;10.326;2023-09-19T10:48:15;34.58;;;17.63;;
32347;SDS011;18821;44.800;10.326;2023-09-19T10:51:06;39.63;;;19.33;;
32347;SDS011;18821;44.800;10.326;2023-09-19T10:56:15;34.03;;;17.52;;
32347;SDS011;18821;44.800;10.326;2023-09-19T10:59:10;36.53;;;18.65;;
32347;SDS011;18821;44.800;10.326;2023-09-19T11:01:53;32.42;;;17.42;;
32347;SDS011;18821;44.800;10.326;2023-09-19T11:04:33;30.02;;;16.48;;
32347;SDS011;18821;44.800;10.326;2023-09-19T11:07:13;29.90;;;15.57;;
32347;SDS011;18821;44.800;10.326;2023-09-19T11:09:50;30.40;;;15.77;;
32347;SDS011;18821;44.800;10.326;2023-09-19T11:14:54;32.28;;;17.52;;
32347;SDS011;18821;44.800;10.326;2023-09-19T11:49:26;29.40;;;13.60;;
32347;SDS011;18821;44.800;10.326;2023-09-19T11:51:58;25.73;;;13.10;;
32347;SDS011;18821;44.800;10.326;2023-09-19T11:54:26;27.75;;;13.75;;
32347;SDS011;18821;44.800;10.326;2023-09-19T11:56:57;32.03;;;12.95;;
32347;SDS011;18821;44.800;10.326;2023-09-19T11:59:24;24.70;;;12.35;;
32347;SDS011;18821;44.800;10.326;2023-09-19T12:01:55;26.25;;;12.55;;
32347;SDS011;18821;44.800;10.326;2023-09-19T12:04:39;24.85;;;12.80;;
32347;SDS011;18821;44.800;10.326;2023-09-19T12:07:07;23.00;;;13.82;;
32347;SDS011;18821;44.800;10.326;2023-09-19T12:09:44;21.67;;;11.70;;
32347;SDS011;18821;44.800;10.326;2023-09-19T12:12:22;31.23;;;13.70;;
32347;SDS011;18821;44.800;10.326;2023-09-19T12:14:49;31.52;;;12.05;;
32347;SDS011;18821;44.800;10.326;2023-09-19T12:17:19;25.95;;;13.52;;
32347;SDS011;18821;44.800;10.326;2023-09-19T12:19:51;29.33;;;12.98;;
32347;SDS011;18821;44.800;10.326;2023-09-19T12:22:22;27.42;;;12.75;;
32347;SDS011;18821;44.800;10.326;2023-09-19T12:24:48;32.22;;;13.73;;
32347;SDS011;18821;44.800;10.326;2023-09-19T12:27:16;30.95;;;15.25;;
32347;SDS011;18821;44.800;10.326;2023-09-19T12:29:44;20.95;;;12.55;;
32347;SDS011;18821;44.800;10.326;2023-09-19T12:32:33;26.42;;;12.52;;
32347;SDS011;18821;44.800;10.326;2023-09-19T12:35:00;24.02;;;12.75;;
32347;SDS011;18821;44.800;10.326;2023-09-19T12:37:32;26.95;;;13.07;;
32347;SDS011;18821;44.800;10.326;2023-09-19T12:40:05;26.98;;;13.05;;
32347;SDS011;18821;44.800;10.326;2023-09-19T12:42:47;29.23;;;11.00;;
32347;SDS011;18821;44.800;10.326;2023-09-19T12:45:14;26.20;;;10.68;;
32347;SDS011;18821;44.800;10.326;2023-09-19T12:53:41;26.35;;;12.82;;
32347;SDS011;18821;44.800;10.326;2023-09-19T12:56:14;20.17;;;9.85;;
32347;SDS011;18821;44.800;10.326;2023-09-19T12:58:54;19.23;;;8.82;;
32347;SDS011;18821;44.800;10.326;2023-09-19T13:01:25;24.38;;;11.65;;
32347;SDS011;18821;44.800;10.326;2023-09-19T13:06:46;26.95;;;11.85;;
32347;SDS011;18821;44.800;10.326;2023-09-19T13:09:14;24.50;;;11.77;;
32347;SDS011;18821;44.800;10.326;2023-09-19T13:11:41;21.80;;;11.20;;
32347;SDS011;18821;44.800;10.326;2023-09-19T13:14:22;23.27;;;10.60;;
32347;SDS011;18821;44.800;10.326;2023-09-19T13:22:02;23.08;;;10.25;;
32347;SDS011;18821;44.800;10.326;2023-09-19T13:24:28;19.98;;;9.75;;
32347;SDS011;18821;44.800;10.326;2023-09-19T13:26:56;36.33;;;13.63;;
32347;SDS011;18821;44.800;10.326;2023-09-19T13:29:22;23.83;;;12.57;;
32347;SDS011;18821;44.800;10.326;2023-09-19T13:31:49;25.33;;;12.25;;
32347;SDS011;18821;44.800;10.326;2023-09-19T13:34:16;23.00;;;10.70;;
32347;SDS011;18821;44.800;10.326;2023-09-19T13:36:43;21.67;;;9.43;;
32347;SDS011;18821;44.800;10.326;2023-09-19T13:39:09;18.38;;;9.65;;
32347;SDS011;18821;44.800;10.326;2023-09-19T13:41:38;22.25;;;8.82;;
32347;SDS011;18821;44.800;10.326;2023-09-19T13:44:06;20.92;;;8.98;;
32347;SDS011;18821;44.800;10.326;2023-09-19T13:46:33;20.58;;;9.25;;
32347;SDS011;18821;44.800;10.326;2023-09-19T13:49:03;19.10;;;10.32;;
32347;SDS011;18821;44.800;10.326;2023-09-19T13:51:31;26.63;;;11.13;;
32347;SDS011;18821;44.800;10.326;2023-09-19T13:53:57;22.77;;;8.77;;
32347;SDS011;18821;44.800;10.326;2023-09-19T13:56:25;21.38;;;9.40;;
32347;SDS011;18821;44.800;10.326;2023-09-19T13:58:56;18.25;;;8.48;;
32347;SDS011;18821;44.800;10.326;2023-09-19T14:01:22;26.70;;;9.20;;
32347;SDS011;18821;44.800;10.326;2023-09-19T14:03:49;17.58;;;8.35;;
32347;SDS011;18821;44.800;10.326;2023-09-19T14:06:16;22.73;;;11.05;;
32347;SDS011;18821;44.800;10.326;2023-09-19T14:08:43;20.45;;;9.15;;
32347;SDS011;18821;44.800;10.326;2023-09-19T14:11:14;22.85;;;9.35;;
32347;SDS011;18821;44.800;10.326;2023-09-19T14:13:41;20.08;;;8.25;;
32347;SDS011;18821;44.800;10.326;2023-09-19T14:16:12;20.42;;;8.48;;
32347;SDS011;18821;44.800;10.326;2023-09-19T14:18:38;22.88;;;9.68;;
32347;SDS011;18821;44.800;10.326;2023-09-19T14:21:06;19.83;;;9.55;;
32347;SDS011;18821;44.800;10.326;2023-09-19T14:23:39;23.02;;;8.30;;
32347;SDS011;18821;44.800;10.326;2023-09-19T14:26:06;23.70;;;8.88;;
32347;SDS011;18821;44.800;10.326;2023-09-19T14:28:33;18.17;;;9.73;;
32347;SDS011;18821;44.800;10.326;2023-09-19T14:31:06;19.27;;;9.10;;
32347;SDS011;18821;44.800;10.326;2023-09-19T14:33:36;17.40;;;8.20;;
32347;SDS011;18821;44.800;10.326;2023-09-19T14:36:09;16.70;;;9.75;;
32347;SDS011;18821;44.800;10.326;2023-09-19T14:38:36;22.33;;;9.57;;
32347;SDS011;18821;44.800;10.326;2023-09-19T14:41:03;20.52;;;9.93;;
32347;SDS011;18821;44.800;10.326;2023-09-19T14:43:31;17.42;;;8.38;;
32347;SDS011;18821;44.800;10.326;2023-09-19T14:46:02;18.40;;;8.52;;
32347;SDS011;18821;44.800;10.326;2023-09-19T14:48:37;14.95;;;7.40;;
32347;SDS011;18821;44.800;10.326;2023-09-19T14:51:04;16.35;;;7.72;;
32347;SDS011;18821;44.800;10.326;2023-09-19T14:53:31;18.42;;;8.35;;
32347;SDS011;18821;44.800;10.326;2023-09-19T14:56:01;21.08;;;8.70;;
32347;SDS011;18821;44.800;10.326;2023-09-19T14:58:33;23.15;;;9.10;;
32347;SDS011;18821;44.800;10.326;2023-09-19T15:03:32;21.83;;;8.52;;
32347;SDS011;18821;44.800;10.326;2023-09-19T15:06:01;18.98;;;8.23;;
32347;SDS011;18821;44.800;10.326;2023-09-19T15:08:31;18.77;;;9.13;;
32347;SDS011;18821;44.800;10.326;2023-09-19T15:11:00;18.65;;;7.88;;
32347;SDS011;18821;44.800;10.326;2023-09-19T15:13:31;20.98;;;7.60;;
32347;SDS011;18821;44.800;10.326;2023-09-19T15:18:30;15.48;;;6.82;;
32347;SDS011;18821;44.800;10.326;2023-09-19T15:21:02;18.88;;;7.10;;
32347;SDS011;18821;44.800;10.326;2023-09-19T15:23:32;23.75;;;7.78;;
32347;SDS011;18821;44.800;10.326;2023-09-19T15:26:03;18.75;;;6.93;;
32347;SDS011;18821;44.800;10.326;2023-09-19T15:28:29;18.58;;;8.05;;
32347;SDS011;18821;44.800;10.326;2023-09-19T15:31:00;21.30;;;7.25;;
32347;SDS011;18821;44.800;10.326;2023-09-19T15:33:27;19.58;;;7.00;;
32347;SDS011;18821;44.800;10.326;2023-09-19T15:36:04;16.88;;;7.07;;
32347;SDS011;18821;44.800;10.326;2023-09-19T15:38:31;24.30;;;7.05;;
32347;SDS011;18821;44.800;10.326;2023-09-19T15:41:21;21.67;;;7.85;;
32347;SDS011;18821;44.800;10.326;2023-09-19T15:43:48;21.40;;;8.23;;
32347;SDS011;18821;44.800;10.326;2023-09-19T15:46:14;16.90;;;7.35;;
32347;SDS011;18821;44.800;10.326;2023-09-19T15:48:41;20.25;;;7.30;;